sensor_id;sensor_type;location;lat;lon;timestamp;P1;durP1;ratioP1;P2;durP2;ratioP2
56201;SDS011;42117;50.360;3.508;2023-06-14T00:01:07;6.85;;;4.20;;
56201;SDS011;42117;50.360;3.508;2023-06-14T00:03:34;5.35;;;4.15;;
56201;SDS011;42117;50.360;3.508;2023-06-14T00:06:00;5.50;;;4.18;;
56201;SDS011;42117;50.360;3.508;2023-06-14T00:08:26;5.80;;;4.40;;
56201;SDS011;42117;50.360;3.508;2023-06-14T00:10:52;4.80;;;4.18;;
56201;SDS011;42117;50.360;3.508;2023-06-14T00:13:18;7.43;;;4.55;;
56201;SDS011;42117;50.360;3.508;2023-06-14T00:15:45;7.63;;;4.47;;
56201;SDS011;42117;50.360;3.508;2023-06-14T00:18:12;7.72;;;4.20;;
56201;SDS011;42117;50.360;3.508;2023-06-14T00:20:38;5.80;;;4.03;;
56201;SDS011;42117;50.360;3.508;2023-06-14T00:23:06;6.00;;;4.47;;
56201;SDS011;42117;50.360;3.508;2023-06-14T00:25:32;7.82;;;4.97;;
56201;SDS011;42117;50.360;3.508;2023-06-14T00:27:58;10.95;;;5.25;;
56201;SDS011;42117;50.360;3.508;2023-06-14T00:30:25;11.55;;;4.82;;
56201;SDS011;42117;50.360;3.508;2023-06-14T00:32:55;11.68;;;5.32;;
56201;SDS011;42117;50.360;3.508;2023-06-14T00:35:21;5.43;;;4.47;;
56201;SDS011;42117;50.360;3.508;2023-06-14T00:37:47;10.55;;;5.00;;
56201;SDS011;42117;50.360;3.508;2023-06-14T00:40:13;10.98;;;4.65;;
56201;SDS011;42117;50.360;3.508;2023-06-14T00:42:39;5.28;;;4.28;;
56201;SDS011;42117;50.360;3.508;2023-06-14T00:45:05;7.05;;;4.47;;
56201;SDS011;42117;50.360;3.508;2023-06-14T00:47:31;6.60;;;4.28;;
56201;SDS011;42117;50.360;3.508;2023-06-14T00:49:57;4.85;;;4.28;;
56201;SDS011;42117;50.360;3.508;2023-06-14T00:52:24;9.15;;;4.97;;
56201;SDS011;42117;50.360;3.508;2023-06-14T00:54:50;11.02;;;4.85;;
56201;SDS011;42117;50.360;3.508;2023-06-14T00:57:16;8.23;;;4.43;;
56201;SDS011;42117;50.360;3.508;2023-06-14T00:59:46;7.95;;;4.90;;
56201;SDS011;42117;50.360;3.508;2023-06-14T01:02:13;9.63;;;5.20;;
56201;SDS011;42117;50.360;3.508;2023-06-14T01:04:46;8.90;;;5.05;;
56201;SDS011;42117;50.360;3.508;2023-06-14T01:07:18;9.95;;;5.70;;
56201;SDS011;42117;50.360;3.508;2023-06-14T01:12:28;10.77;;;5.80;;
56201;SDS011;42117;50.360;3.508;2023-06-14T01:14:56;12.80;;;6.10;;
56201;SDS011;42117;50.360;3.508;2023-06-14T01:17:23;10.02;;;5.63;;
56201;SDS011;42117;50.360;3.508;2023-06-14T01:19:52;9.13;;;5.82;;
56201;SDS011;42117;50.360;3.508;2023-06-14T01:22:24;12.00;;;6.47;;
56201;SDS011;42117;50.360;3.508;2023-06-14T01:24:50;11.32;;;6.05;;
56201;SDS011;42117;50.360;3.508;2023-06-14T01:27:23;12.13;;;6.37;;
56201;SDS011;42117;50.360;3.508;2023-06-14T01:29:53;17.70;;;7.10;;
56201;SDS011;42117;50.360;3.508;2023-06-14T01:32:22;16.53;;;8.27;;
56201;SDS011;42117;50.360;3.508;2023-06-14T01:34:49;15.95;;;8.95;;
56201;SDS011;42117;50.360;3.508;2023-06-14T01:37:15;18.77;;;8.27;;
56201;SDS011;42117;50.360;3.508;2023-06-14T01:39:41;16.42;;;7.85;;
56201;SDS011;42117;50.360;3.508;2023-06-14T01:42:09;14.30;;;6.70;;
56201;SDS011;42117;50.360;3.508;2023-06-14T01:44:37;11.07;;;6.45;;
56201;SDS011;42117;50.360;3.508;2023-06-14T01:47:03;11.75;;;5.80;;
56201;SDS011;42117;50.360;3.508;2023-06-14T01:49:29;8.10;;;4.97;;
56201;SDS011;42117;50.360;3.508;2023-06-14T01:51:59;8.27;;;5.80;;
56201;SDS011;42117;50.360;3.508;2023-06-14T01:54:25;12.70;;;5.88;;
56201;SDS011;42117;50.360;3.508;2023-06-14T01:56:51;9.20;;;5.20;;
56201;SDS011;42117;50.360;3.508;2023-06-14T01:59:17;11.43;;;5.72;;
56201;SDS011;42117;50.360;3.508;2023-06-14T02:01:43;8.40;;;5.93;;
56201;SDS011;42117;50.360;3.508;2023-06-14T02:04:11;13.85;;;6.03;;
56201;SDS011;42117;50.360;3.508;2023-06-14T02:06:37;10.98;;;5.20;;
56201;SDS011;42117;50.360;3.508;2023-06-14T02:09:03;8.70;;;5.10;;
56201;SDS011;42117;50.360;3.508;2023-06-14T02:11:29;8.05;;;5.13;;
56201;SDS011;42117;50.360;3.508;2023-06-14T02:13:55;10.70;;;5.72;;
56201;SDS011;42117;50.360;3.508;2023-06-14T02:16:21;13.05;;;6.00;;
56201;SDS011;42117;50.360;3.508;2023-06-14T02:18:48;8.85;;;6.03;;
56201;SDS011;42117;50.360;3.508;2023-06-14T02:21:14;13.27;;;5.78;;
56201;SDS011;42117;50.360;3.508;2023-06-14T02:23:40;6.93;;;5.22;;
56201;SDS011;42117;50.360;3.508;2023-06-14T02:26:06;8.50;;;5.55;;
56201;SDS011;42117;50.360;3.508;2023-06-14T02:28:32;7.45;;;5.75;;
56201;SDS011;42117;50.360;3.508;2023-06-14T02:30:58;7.82;;;5.40;;
56201;SDS011;42117;50.360;3.508;2023-06-14T02:33:25;8.32;;;5.50;;
56201;SDS011;42117;50.360;3.508;2023-06-14T02:35:52;9.98;;;5.60;;
56201;SDS011;42117;50.360;3.508;2023-06-14T02:38:18;8.85;;;5.43;;
56201;SDS011;42117;50.360;3.508;2023-06-14T02:40:44;7.90;;;5.57;;
56201;SDS011;42117;50.360;3.508;2023-06-14T02:43:10;10.25;;;5.40;;
56201;SDS011;42117;50.360;3.508;2023-06-14T02:45:36;11.45;;;5.82;;
56201;SDS011;42117;50.360;3.508;2023-06-14T02:48:03;13.50;;;6.30;;
56201;SDS011;42117;50.360;3.508;2023-06-14T02:50:29;10.02;;;5.80;;
56201;SDS011;42117;50.360;3.508;2023-06-14T02:52:55;8.57;;;5.75;;
56201;SDS011;42117;50.360;3.508;2023-06-14T02:55:22;14.98;;;6.40;;
56201;SDS011;42117;50.360;3.508;2023-06-14T02:57:48;10.57;;;6.03;;
56201;SDS011;42117;50.360;3.508;2023-06-14T03:00:14;13.30;;;6.00;;
56201;SDS011;42117;50.360;3.508;2023-06-14T03:02:40;11.60;;;6.32;;
56201;SDS011;42117;50.360;3.508;2023-06-14T03:05:07;6.28;;;5.30;;
56201;SDS011;42117;50.360;3.508;2023-06-14T03:07:34;8.05;;;6.03;;
56201;SDS011;42117;50.360;3.508;2023-06-14T03:10:06;9.13;;;6.35;;
56201;SDS011;42117;50.360;3.508;2023-06-14T03:12:33;11.98;;;5.80;;
56201;SDS011;42117;50.360;3.508;2023-06-14T03:14:59;10.82;;;5.57;;
56201;SDS011;42117;50.360;3.508;2023-06-14T03:17:29;7.43;;;5.82;;
56201;SDS011;42117;50.360;3.508;2023-06-14T03:19:58;7.32;;;5.55;;
56201;SDS011;42117;50.360;3.508;2023-06-14T03:22:25;8.63;;;5.60;;
56201;SDS011;42117;50.360;3.508;2023-06-14T03:24:51;10.17;;;5.60;;
56201;SDS011;42117;50.360;3.508;2023-06-14T03:27:19;8.68;;;5.95;;
56201;SDS011;42117;50.360;3.508;2023-06-14T03:29:45;9.50;;;5.90;;
56201;SDS011;42117;50.360;3.508;2023-06-14T03:32:11;8.60;;;5.63;;
56201;SDS011;42117;50.360;3.508;2023-06-14T03:34:37;8.15;;;5.85;;
56201;SDS011;42117;50.360;3.508;2023-06-14T03:37:04;8.65;;;6.28;;
56201;SDS011;42117;50.360;3.508;2023-06-14T03:39:30;11.63;;;6.22;;
56201;SDS011;42117;50.360;3.508;2023-06-14T03:41:56;14.20;;;5.95;;
56201;SDS011;42117;50.360;3.508;2023-06-14T03:44:22;8.50;;;5.88;;
56201;SDS011;42117;50.360;3.508;2023-06-14T03:46:48;9.13;;;5.97;;
56201;SDS011;42117;50.360;3.508;2023-06-14T03:49:15;8.60;;;6.03;;
56201;SDS011;42117;50.360;3.508;2023-06-14T03:51:42;10.02;;;5.95;;
56201;SDS011;42117;50.360;3.508;2023-06-14T03:54:08;12.93;;;5.65;;
56201;SDS011;42117;50.360;3.508;2023-06-14T03:56:34;7.60;;;5.40;;
56201;SDS011;42117;50.360;3.508;2023-06-14T03:59:01;9.55;;;6.05;;
56201;SDS011;42117;50.360;3.508;2023-06-14T04:01:27;7.80;;;5.88;;
56201;SDS011;42117;50.360;3.508;2023-06-14T04:03:57;10.13;;;6.10;;
56201;SDS011;42117;50.360;3.508;2023-06-14T04:06:23;9.43;;;6.17;;
56201;SDS011;42117;50.360;3.508;2023-06-14T04:08:50;8.50;;;5.60;;
56201;SDS011;42117;50.360;3.508;2023-06-14T04:11:17;8.73;;;5.53;;
56201;SDS011;42117;50.360;3.508;2023-06-14T04:13:43;10.10;;;6.13;;
56201;SDS011;42117;50.360;3.508;2023-06-14T04:16:09;8.20;;;6.35;;
56201;SDS011;42117;50.360;3.508;2023-06-14T04:18:35;6.70;;;6.00;;
56201;SDS011;42117;50.360;3.508;2023-06-14T04:21:01;7.82;;;5.97;;
56201;SDS011;42117;50.360;3.508;2023-06-14T04:23:27;7.77;;;6.17;;
56201;SDS011;42117;50.360;3.508;2023-06-14T04:25:55;10.48;;;5.63;;
56201;SDS011;42117;50.360;3.508;2023-06-14T04:28:26;9.32;;;5.85;;
56201;SDS011;42117;50.360;3.508;2023-06-14T04:30:52;7.80;;;5.78;;
56201;SDS011;42117;50.360;3.508;2023-06-14T04:33:19;10.02;;;5.63;;
56201;SDS011;42117;50.360;3.508;2023-06-14T04:35:45;8.15;;;5.90;;
56201;SDS011;42117;50.360;3.508;2023-06-14T04:38:18;11.57;;;6.60;;
56201;SDS011;42117;50.360;3.508;2023-06-14T04:40:49;9.90;;;5.75;;
56201;SDS011;42117;50.360;3.508;2023-06-14T04:43:17;13.97;;;5.80;;
56201;SDS011;42117;50.360;3.508;2023-06-14T04:45:49;8.30;;;5.50;;
56201;SDS011;42117;50.360;3.508;2023-06-14T04:48:16;10.25;;;5.65;;
56201;SDS011;42117;50.360;3.508;2023-06-14T04:50:45;7.25;;;6.18;;
56201;SDS011;42117;50.360;3.508;2023-06-14T04:53:11;7.95;;;5.57;;
56201;SDS011;42117;50.360;3.508;2023-06-14T04:55:37;8.13;;;6.00;;
56201;SDS011;42117;50.360;3.508;2023-06-14T04:58:03;12.05;;;5.85;;
56201;SDS011;42117;50.360;3.508;2023-06-14T05:00:29;7.78;;;5.18;;
56201;SDS011;42117;50.360;3.508;2023-06-14T05:02:56;7.63;;;5.40;;
56201;SDS011;42117;50.360;3.508;2023-06-14T05:05:22;10.30;;;5.40;;
56201;SDS011;42117;50.360;3.508;2023-06-14T05:07:49;11.32;;;5.80;;
56201;SDS011;42117;50.360;3.508;2023-06-14T05:10:15;7.82;;;5.30;;
56201;SDS011;42117;50.360;3.508;2023-06-14T05:12:41;9.88;;;5.95;;
56201;SDS011;42117;50.360;3.508;2023-06-14T05:15:08;10.18;;;5.30;;
56201;SDS011;42117;50.360;3.508;2023-06-14T05:17:35;9.40;;;6.15;;
56201;SDS011;42117;50.360;3.508;2023-06-14T05:20:01;12.93;;;5.57;;
56201;SDS011;42117;50.360;3.508;2023-06-14T05:22:28;7.07;;;5.47;;
56201;SDS011;42117;50.360;3.508;2023-06-14T05:24:55;6.93;;;5.43;;
56201;SDS011;42117;50.360;3.508;2023-06-14T05:27:21;8.63;;;6.03;;
56201;SDS011;42117;50.360;3.508;2023-06-14T05:29:47;9.02;;;5.90;;
56201;SDS011;42117;50.360;3.508;2023-06-14T05:32:13;12.05;;;6.55;;
56201;SDS011;42117;50.360;3.508;2023-06-14T05:34:39;7.20;;;5.53;;
56201;SDS011;42117;50.360;3.508;2023-06-14T05:37:05;10.32;;;6.65;;
56201;SDS011;42117;50.360;3.508;2023-06-14T05:39:31;7.55;;;5.95;;
56201;SDS011;42117;50.360;3.508;2023-06-14T05:41:57;8.52;;;6.10;;
56201;SDS011;42117;50.360;3.508;2023-06-14T05:44:23;10.07;;;6.32;;
56201;SDS011;42117;50.360;3.508;2023-06-14T05:46:49;9.27;;;6.15;;
56201;SDS011;42117;50.360;3.508;2023-06-14T05:49:15;13.43;;;7.20;;
56201;SDS011;42117;50.360;3.508;2023-06-14T05:51:41;9.23;;;5.50;;
56201;SDS011;42117;50.360;3.508;2023-06-14T05:54:07;9.07;;;6.15;;
56201;SDS011;42117;50.360;3.508;2023-06-14T05:56:33;8.83;;;6.10;;
56201;SDS011;42117;50.360;3.508;2023-06-14T05:58:59;9.70;;;5.63;;
56201;SDS011;42117;50.360;3.508;2023-06-14T06:01:26;9.77;;;6.27;;
56201;SDS011;42117;50.360;3.508;2023-06-14T06:03:52;8.07;;;5.95;;
56201;SDS011;42117;50.360;3.508;2023-06-14T06:06:18;11.70;;;5.72;;
56201;SDS011;42117;50.360;3.508;2023-06-14T06:08:45;10.20;;;5.88;;
56201;SDS011;42117;50.360;3.508;2023-06-14T06:11:11;11.20;;;5.78;;
56201;SDS011;42117;50.360;3.508;2023-06-14T06:13:37;8.10;;;5.43;;
56201;SDS011;42117;50.360;3.508;2023-06-14T06:16:04;8.40;;;5.57;;
56201;SDS011;42117;50.360;3.508;2023-06-14T06:18:30;13.10;;;6.07;;
56201;SDS011;42117;50.360;3.508;2023-06-14T06:20:56;10.03;;;6.07;;
56201;SDS011;42117;50.360;3.508;2023-06-14T06:23:22;12.27;;;5.68;;
56201;SDS011;42117;50.360;3.508;2023-06-14T06:25:51;6.72;;;5.13;;
56201;SDS011;42117;50.360;3.508;2023-06-14T06:28:17;10.55;;;5.75;;
56201;SDS011;42117;50.360;3.508;2023-06-14T06:30:43;8.57;;;5.65;;
56201;SDS011;42117;50.360;3.508;2023-06-14T06:33:09;10.00;;;5.93;;
56201;SDS011;42117;50.360;3.508;2023-06-14T06:35:35;9.43;;;5.90;;
56201;SDS011;42117;50.360;3.508;2023-06-14T06:38:01;9.27;;;5.65;;
56201;SDS011;42117;50.360;3.508;2023-06-14T06:40:28;7.35;;;5.40;;
56201;SDS011;42117;50.360;3.508;2023-06-14T06:42:54;10.10;;;5.65;;
56201;SDS011;42117;50.360;3.508;2023-06-14T06:45:20;10.38;;;5.55;;
56201;SDS011;42117;50.360;3.508;2023-06-14T06:47:46;11.07;;;5.25;;
56201;SDS011;42117;50.360;3.508;2023-06-14T06:50:12;9.27;;;5.75;;
56201;SDS011;42117;50.360;3.508;2023-06-14T06:52:38;9.90;;;5.60;;
56201;SDS011;42117;50.360;3.508;2023-06-14T06:55:04;9.05;;;5.60;;
56201;SDS011;42117;50.360;3.508;2023-06-14T06:57:30;15.48;;;5.95;;
56201;SDS011;42117;50.360;3.508;2023-06-14T06:59:57;7.82;;;5.60;;
56201;SDS011;42117;50.360;3.508;2023-06-14T07:02:23;11.65;;;6.47;;
56201;SDS011;42117;50.360;3.508;2023-06-14T07:04:49;12.48;;;6.05;;
56201;SDS011;42117;50.360;3.508;2023-06-14T07:07:15;13.23;;;5.40;;
56201;SDS011;42117;50.360;3.508;2023-06-14T07:09:41;8.88;;;5.25;;
56201;SDS011;42117;50.360;3.508;2023-06-14T07:12:08;9.30;;;5.63;;
56201;SDS011;42117;50.360;3.508;2023-06-14T07:14:34;11.07;;;5.50;;
56201;SDS011;42117;50.360;3.508;2023-06-14T07:17:00;11.57;;;5.60;;
56201;SDS011;42117;50.360;3.508;2023-06-14T07:19:26;10.60;;;5.97;;
56201;SDS011;42117;50.360;3.508;2023-06-14T07:21:52;11.15;;;5.70;;
56201;SDS011;42117;50.360;3.508;2023-06-14T07:24:18;11.65;;;5.80;;
56201;SDS011;42117;50.360;3.508;2023-06-14T07:26:46;11.98;;;5.93;;
56201;SDS011;42117;50.360;3.508;2023-06-14T07:29:13;13.05;;;6.32;;
56201;SDS011;42117;50.360;3.508;2023-06-14T07:31:39;12.48;;;6.70;;
56201;SDS011;42117;50.360;3.508;2023-06-14T07:34:05;11.20;;;5.65;;
56201;SDS011;42117;50.360;3.508;2023-06-14T07:36:31;17.42;;;6.40;;
56201;SDS011;42117;50.360;3.508;2023-06-14T07:38:58;12.73;;;6.47;;
56201;SDS011;42117;50.360;3.508;2023-06-14T07:41:24;9.45;;;5.63;;
56201;SDS011;42117;50.360;3.508;2023-06-14T07:43:50;13.27;;;6.05;;
56201;SDS011;42117;50.360;3.508;2023-06-14T07:46:16;11.60;;;6.55;;
56201;SDS011;42117;50.360;3.508;2023-06-14T07:48:42;10.93;;;6.30;;
56201;SDS011;42117;50.360;3.508;2023-06-14T07:51:08;13.50;;;6.10;;
56201;SDS011;42117;50.360;3.508;2023-06-14T07:53:34;8.07;;;6.07;;
56201;SDS011;42117;50.360;3.508;2023-06-14T07:56:00;15.90;;;6.85;;
56201;SDS011;42117;50.360;3.508;2023-06-14T07:58:27;12.27;;;6.97;;
56201;SDS011;42117;50.360;3.508;2023-06-14T08:00:53;13.90;;;7.10;;
56201;SDS011;42117;50.360;3.508;2023-06-14T08:03:19;13.57;;;6.25;;
56201;SDS011;42117;50.360;3.508;2023-06-14T08:05:47;9.38;;;6.68;;
56201;SDS011;42117;50.360;3.508;2023-06-14T08:08:13;11.10;;;6.15;;
56201;SDS011;42117;50.360;3.508;2023-06-14T08:10:39;11.77;;;6.25;;
56201;SDS011;42117;50.360;3.508;2023-06-14T08:13:05;14.23;;;6.50;;
56201;SDS011;42117;50.360;3.508;2023-06-14T08:15:31;15.18;;;7.30;;
56201;SDS011;42117;50.360;3.508;2023-06-14T08:17:57;13.80;;;7.00;;
56201;SDS011;42117;50.360;3.508;2023-06-14T08:20:25;13.27;;;7.03;;
56201;SDS011;42117;50.360;3.508;2023-06-14T08:22:51;16.17;;;7.70;;
56201;SDS011;42117;50.360;3.508;2023-06-14T08:25:21;16.77;;;7.85;;
56201;SDS011;42117;50.360;3.508;2023-06-14T08:27:47;18.95;;;8.52;;
56201;SDS011;42117;50.360;3.508;2023-06-14T08:30:13;17.40;;;8.60;;
56201;SDS011;42117;50.360;3.508;2023-06-14T08:32:39;14.27;;;7.95;;
56201;SDS011;42117;50.360;3.508;2023-06-14T08:35:05;16.80;;;7.88;;
56201;SDS011;42117;50.360;3.508;2023-06-14T08:37:32;14.90;;;6.72;;
56201;SDS011;42117;50.360;3.508;2023-06-14T08:39:58;17.90;;;7.63;;
56201;SDS011;42117;50.360;3.508;2023-06-14T08:42:24;18.75;;;8.63;;
56201;SDS011;42117;50.360;3.508;2023-06-14T08:44:50;22.70;;;9.07;;
56201;SDS011;42117;50.360;3.508;2023-06-14T08:47:16;18.92;;;8.52;;
56201;SDS011;42117;50.360;3.508;2023-06-14T08:49:45;19.52;;;9.00;;
56201;SDS011;42117;50.360;3.508;2023-06-14T08:52:13;26.73;;;8.80;;
56201;SDS011;42117;50.360;3.508;2023-06-14T08:54:43;14.48;;;7.78;;
56201;SDS011;42117;50.360;3.508;2023-06-14T08:57:13;19.63;;;8.13;;
56201;SDS011;42117;50.360;3.508;2023-06-14T08:59:44;14.23;;;6.93;;
56201;SDS011;42117;50.360;3.508;2023-06-14T09:02:11;19.42;;;7.40;;
56201;SDS011;42117;50.360;3.508;2023-06-14T09:04:38;12.80;;;6.78;;
56201;SDS011;42117;50.360;3.508;2023-06-14T09:07:05;11.48;;;6.38;;
56201;SDS011;42117;50.360;3.508;2023-06-14T09:09:31;17.48;;;6.68;;
56201;SDS011;42117;50.360;3.508;2023-06-14T09:11:59;11.18;;;6.35;;
56201;SDS011;42117;50.360;3.508;2023-06-14T09:14:25;12.85;;;6.80;;
56201;SDS011;42117;50.360;3.508;2023-06-14T09:16:54;16.35;;;5.55;;
56201;SDS011;42117;50.360;3.508;2023-06-14T09:19:21;11.90;;;6.30;;
56201;SDS011;42117;50.360;3.508;2023-06-14T09:21:48;14.93;;;6.17;;
56201;SDS011;42117;50.360;3.508;2023-06-14T09:24:14;18.60;;;6.93;;
56201;SDS011;42117;50.360;3.508;2023-06-14T09:26:40;16.30;;;6.55;;
56201;SDS011;42117;50.360;3.508;2023-06-14T09:29:06;16.15;;;5.32;;
56201;SDS011;42117;50.360;3.508;2023-06-14T09:31:32;13.50;;;5.17;;
56201;SDS011;42117;50.360;3.508;2023-06-14T09:33:59;9.13;;;4.80;;
56201;SDS011;42117;50.360;3.508;2023-06-14T09:36:27;12.87;;;4.53;;
56201;SDS011;42117;50.360;3.508;2023-06-14T09:41:38;8.85;;;4.32;;
56201;SDS011;42117;50.360;3.508;2023-06-14T09:44:06;15.57;;;5.10;;
56201;SDS011;42117;50.360;3.508;2023-06-14T09:46:33;7.70;;;4.53;;
56201;SDS011;42117;50.360;3.508;2023-06-14T09:49:00;14.25;;;4.68;;
56201;SDS011;42117;50.360;3.508;2023-06-14T09:51:26;8.35;;;4.68;;
56201;SDS011;42117;50.360;3.508;2023-06-14T09:53:53;19.77;;;7.25;;
56201;SDS011;42117;50.360;3.508;2023-06-14T09:56:41;8.17;;;4.50;;
56201;SDS011;42117;50.360;3.508;2023-06-14T09:59:09;7.67;;;3.90;;
56201;SDS011;42117;50.360;3.508;2023-06-14T10:01:35;8.00;;;3.65;;
56201;SDS011;42117;50.360;3.508;2023-06-14T10:04:05;6.38;;;3.92;;
56201;SDS011;42117;50.360;3.508;2023-06-14T10:06:31;9.93;;;3.80;;
56201;SDS011;42117;50.360;3.508;2023-06-14T10:08:58;4.07;;;3.63;;
56201;SDS011;42117;50.360;3.508;2023-06-14T10:11:28;5.45;;;3.38;;
56201;SDS011;42117;50.360;3.508;2023-06-14T10:13:55;6.05;;;3.53;;
56201;SDS011;42117;50.360;3.508;2023-06-14T10:16:27;8.50;;;3.53;;
56201;SDS011;42117;50.360;3.508;2023-06-14T10:19:03;7.28;;;3.70;;
56201;SDS011;42117;50.360;3.508;2023-06-14T10:21:35;4.20;;;3.53;;
56201;SDS011;42117;50.360;3.508;2023-06-14T10:24:04;12.50;;;4.13;;
56201;SDS011;42117;50.360;3.508;2023-06-14T10:26:31;6.95;;;3.40;;
56201;SDS011;42117;50.360;3.508;2023-06-14T10:28:58;4.07;;;3.38;;
56201;SDS011;42117;50.360;3.508;2023-06-14T10:31:39;6.57;;;3.60;;
56201;SDS011;42117;50.360;3.508;2023-06-14T10:34:06;6.97;;;3.60;;
56201;SDS011;42117;50.360;3.508;2023-06-14T10:36:32;5.00;;;3.40;;
56201;SDS011;42117;50.360;3.508;2023-06-14T10:39:04;6.57;;;4.00;;
56201;SDS011;42117;50.360;3.508;2023-06-14T10:41:31;4.63;;;3.65;;
56201;SDS011;42117;50.360;3.508;2023-06-14T10:46:47;7.63;;;3.53;;
56201;SDS011;42117;50.360;3.508;2023-06-14T10:49:17;12.63;;;3.60;;
56201;SDS011;42117;50.360;3.508;2023-06-14T10:51:49;4.45;;;3.53;;
56201;SDS011;42117;50.360;3.508;2023-06-14T10:54:16;4.75;;;3.10;;
56201;SDS011;42117;50.360;3.508;2023-06-14T10:56:46;6.22;;;3.58;;
56201;SDS011;42117;50.360;3.508;2023-06-14T10:59:13;8.80;;;3.80;;
56201;SDS011;42117;50.360;3.508;2023-06-14T11:04:14;5.53;;;3.50;;
56201;SDS011;42117;50.360;3.508;2023-06-14T11:09:27;6.07;;;3.10;;
56201;SDS011;42117;50.360;3.508;2023-06-14T11:11:59;8.95;;;3.20;;
56201;SDS011;42117;50.360;3.508;2023-06-14T11:14:29;6.20;;;3.20;;
56201;SDS011;42117;50.360;3.508;2023-06-14T11:16:56;4.10;;;2.90;;
56201;SDS011;42117;50.360;3.508;2023-06-14T11:19:22;7.55;;;3.08;;
56201;SDS011;42117;50.360;3.508;2023-06-14T11:21:48;3.85;;;3.05;;
56201;SDS011;42117;50.360;3.508;2023-06-14T11:24:14;3.97;;;2.92;;
56201;SDS011;42117;50.360;3.508;2023-06-14T11:26:41;3.70;;;2.95;;
56201;SDS011;42117;50.360;3.508;2023-06-14T11:29:07;3.78;;;2.70;;
56201;SDS011;42117;50.360;3.508;2023-06-14T11:31:33;6.18;;;3.00;;
56201;SDS011;42117;50.360;3.508;2023-06-14T11:33:59;6.97;;;3.22;;
56201;SDS011;42117;50.360;3.508;2023-06-14T11:36:26;5.88;;;3.05;;
56201;SDS011;42117;50.360;3.508;2023-06-14T11:39:01;4.82;;;3.10;;
56201;SDS011;42117;50.360;3.508;2023-06-14T11:41:40;2.80;;;2.60;;
56201;SDS011;42117;50.360;3.508;2023-06-14T11:44:07;4.18;;;2.80;;
56201;SDS011;42117;50.360;3.508;2023-06-14T11:46:33;3.17;;;2.85;;
56201;SDS011;42117;50.360;3.508;2023-06-14T11:48:59;6.93;;;3.42;;
56201;SDS011;42117;50.360;3.508;2023-06-14T11:51:28;3.93;;;3.23;;
56201;SDS011;42117;50.360;3.508;2023-06-14T11:53:54;3.60;;;3.30;;
56201;SDS011;42117;50.360;3.508;2023-06-14T11:56:20;3.88;;;3.47;;
56201;SDS011;42117;50.360;3.508;2023-06-14T11:58:46;5.13;;;3.40;;
56201;SDS011;42117;50.360;3.508;2023-06-14T12:01:18;5.60;;;3.40;;
56201;SDS011;42117;50.360;3.508;2023-06-14T12:03:48;14.07;;;3.23;;
56201;SDS011;42117;50.360;3.508;2023-06-14T12:06:15;8.30;;;3.17;;
56201;SDS011;42117;50.360;3.508;2023-06-14T12:08:42;3.65;;;3.00;;
56201;SDS011;42117;50.360;3.508;2023-06-14T12:11:11;8.07;;;3.22;;
56201;SDS011;42117;50.360;3.508;2023-06-14T12:13:38;4.25;;;3.28;;
56201;SDS011;42117;50.360;3.508;2023-06-14T12:16:08;4.57;;;3.30;;
56201;SDS011;42117;50.360;3.508;2023-06-14T12:18:35;4.75;;;3.08;;
56201;SDS011;42117;50.360;3.508;2023-06-14T12:21:01;3.20;;;2.90;;
56201;SDS011;42117;50.360;3.508;2023-06-14T12:23:45;3.28;;;3.00;;
56201;SDS011;42117;50.360;3.508;2023-06-14T12:26:15;3.97;;;3.00;;
56201;SDS011;42117;50.360;3.508;2023-06-14T12:28:42;3.85;;;2.95;;
56201;SDS011;42117;50.360;3.508;2023-06-14T12:31:08;7.35;;;2.50;;
56201;SDS011;42117;50.360;3.508;2023-06-14T12:33:34;4.03;;;2.50;;
56201;SDS011;42117;50.360;3.508;2023-06-14T12:36:03;6.50;;;3.05;;
56201;SDS011;42117;50.360;3.508;2023-06-14T12:38:29;8.30;;;2.90;;
56201;SDS011;42117;50.360;3.508;2023-06-14T12:40:55;5.88;;;2.50;;
56201;SDS011;42117;50.360;3.508;2023-06-14T12:43:22;5.25;;;2.92;;
56201;SDS011;42117;50.360;3.508;2023-06-14T12:45:48;3.97;;;2.33;;
56201;SDS011;42117;50.360;3.508;2023-06-14T12:48:14;3.55;;;2.72;;
56201;SDS011;42117;50.360;3.508;2023-06-14T12:50:40;4.13;;;2.50;;
56201;SDS011;42117;50.360;3.508;2023-06-14T12:53:07;6.25;;;2.40;;
56201;SDS011;42117;50.360;3.508;2023-06-14T12:55:33;4.05;;;2.85;;
56201;SDS011;42117;50.360;3.508;2023-06-14T12:57:59;4.10;;;2.60;;
56201;SDS011;42117;50.360;3.508;2023-06-14T13:00:25;3.27;;;2.63;;
56201;SDS011;42117;50.360;3.508;2023-06-14T13:02:51;4.72;;;2.70;;
56201;SDS011;42117;50.360;3.508;2023-06-14T13:05:18;6.72;;;2.90;;
56201;SDS011;42117;50.360;3.508;2023-06-14T13:07:44;4.67;;;2.63;;
56201;SDS011;42117;50.360;3.508;2023-06-14T13:10:10;5.57;;;3.13;;
56201;SDS011;42117;50.360;3.508;2023-06-14T13:12:36;4.10;;;2.90;;
56201;SDS011;42117;50.360;3.508;2023-06-14T13:15:02;4.43;;;2.75;;
56201;SDS011;42117;50.360;3.508;2023-06-14T13:17:28;5.10;;;2.70;;
56201;SDS011;42117;50.360;3.508;2023-06-14T13:19:54;3.75;;;2.70;;
56201;SDS011;42117;50.360;3.508;2023-06-14T13:22:20;6.20;;;2.90;;
56201;SDS011;42117;50.360;3.508;2023-06-14T13:24:46;3.78;;;2.92;;
56201;SDS011;42117;50.360;3.508;2023-06-14T13:27:14;5.85;;;2.75;;
56201;SDS011;42117;50.360;3.508;2023-06-14T13:29:40;4.15;;;2.75;;
56201;SDS011;42117;50.360;3.508;2023-06-14T13:32:06;4.07;;;2.90;;
56201;SDS011;42117;50.360;3.508;2023-06-14T13:34:33;4.40;;;2.90;;
56201;SDS011;42117;50.360;3.508;2023-06-14T13:36:58;4.20;;;3.13;;
56201;SDS011;42117;50.360;3.508;2023-06-14T13:39:25;5.50;;;2.80;;
56201;SDS011;42117;50.360;3.508;2023-06-14T13:41:51;6.63;;;2.50;;
56201;SDS011;42117;50.360;3.508;2023-06-14T13:44:17;3.28;;;2.97;;
56201;SDS011;42117;50.360;3.508;2023-06-14T13:46:46;4.47;;;2.72;;
56201;SDS011;42117;50.360;3.508;2023-06-14T13:49:12;5.82;;;3.13;;
56201;SDS011;42117;50.360;3.508;2023-06-14T13:51:38;5.55;;;3.17;;
56201;SDS011;42117;50.360;3.508;2023-06-14T13:54:04;4.85;;;3.05;;
56201;SDS011;42117;50.360;3.508;2023-06-14T13:56:31;5.20;;;3.35;;
56201;SDS011;42117;50.360;3.508;2023-06-14T13:58:57;5.63;;;2.90;;
56201;SDS011;42117;50.360;3.508;2023-06-14T14:01:24;5.45;;;2.92;;
56201;SDS011;42117;50.360;3.508;2023-06-14T14:03:51;2.78;;;2.55;;
56201;SDS011;42117;50.360;3.508;2023-06-14T14:06:17;5.63;;;3.53;;
56201;SDS011;42117;50.360;3.508;2023-06-14T14:08:43;5.78;;;3.10;;
56201;SDS011;42117;50.360;3.508;2023-06-14T14:11:09;3.80;;;2.70;;
56201;SDS011;42117;50.360;3.508;2023-06-14T14:13:35;4.67;;;2.80;;
56201;SDS011;42117;50.360;3.508;2023-06-14T14:16:02;9.20;;;3.30;;
56201;SDS011;42117;50.360;3.508;2023-06-14T14:18:28;6.25;;;3.70;;
56201;SDS011;42117;50.360;3.508;2023-06-14T14:20:54;4.70;;;4.00;;
56201;SDS011;42117;50.360;3.508;2023-06-14T14:23:21;5.45;;;3.58;;
56201;SDS011;42117;50.360;3.508;2023-06-14T14:25:47;6.03;;;2.83;;
56201;SDS011;42117;50.360;3.508;2023-06-14T14:28:13;5.00;;;3.40;;
56201;SDS011;42117;50.360;3.508;2023-06-14T14:30:41;3.13;;;2.90;;
56201;SDS011;42117;50.360;3.508;2023-06-14T14:33:07;3.30;;;3.00;;
56201;SDS011;42117;50.360;3.508;2023-06-14T14:35:33;5.38;;;3.00;;
56201;SDS011;42117;50.360;3.508;2023-06-14T14:37:59;5.85;;;3.72;;
56201;SDS011;42117;50.360;3.508;2023-06-14T14:40:28;3.63;;;3.33;;
56201;SDS011;42117;50.360;3.508;2023-06-14T14:42:54;4.35;;;3.17;;
56201;SDS011;42117;50.360;3.508;2023-06-14T14:45:20;6.93;;;3.30;;
56201;SDS011;42117;50.360;3.508;2023-06-14T14:47:46;4.13;;;2.88;;
56201;SDS011;42117;50.360;3.508;2023-06-14T14:50:12;4.00;;;3.00;;
56201;SDS011;42117;50.360;3.508;2023-06-14T14:52:38;5.30;;;3.15;;
56201;SDS011;42117;50.360;3.508;2023-06-14T14:55:04;3.80;;;3.20;;